Time;durP1;ratioP1;P1;durP2;ratioP2;P2;SDS_P1;SDS_P2;PMS_P1;PMS_P2;Temp;Humidity;BMP_temperature;BMP_pressure;BME280_temperature;BME280_humidity;BME280_pressure;Samples;Min_cycle;Max_cycle;Signal;HPM_P1;HPM_P2
2022/11/11 00:00:58;;;;;;;9.00;4.00;;;;;;;;;;4994722;28;20703;-87
2022/11/11 00:03:24;;;;;;;7.05;4.18;;;;;;;;;;4994133;28;20030;-88
2022/11/11 00:05:49;;;;;;;10.55;6.00;;;;;;;;;;4989538;28;20092;-87
2022/11/11 00:08:17;;;;;;;11.75;5.13;;;;;;;;;;4987649;28;20038;-87
2022/11/11 00:10:43;;;;;;;11.73;5.03;;;;;;;;;;4985607;28;20038;-85
2022/11/11 00:13:08;;;;;;;13.23;5.00;;;;;;;;;;4992439;28;20027;-88
2022/11/11 00:15:36;;;;;;;10.55;5.20;;;;;;;;;;4982874;28;20026;-86
2022/11/11 00:26:14;;;;;;;13.18;4.88;;;;;;;;;;4991920;28;20110;-86
2022/11/11 00:28:40;;;;;;;8.05;4.00;;;;;;;;;;4984309;28;20182;-86
2022/11/11 00:31:09;;;;;;;6.65;4.13;;;;;;;;;;4979031;28;20105;-87
2022/11/11 00:33:34;;;;;;;7.72;4.75;;;;;;;;;;4980434;28;20037;-87
2022/11/11 00:36:00;;;;;;;9.55;4.88;;;;;;;;;;4983282;28;20019;-88
2022/11/11 00:38:44;;;;;;;6.05;4.28;;;;;;;;;;4989856;28;20575;-88
2022/11/11 00:41:15;;;;;;;10.13;4.97;;;;;;;;;;4989384;28;20057;-89
2022/11/11 00:43:41;;;;;;;7.28;4.63;;;;;;;;;;4988497;28;20061;-88
2022/11/11 00:51:34;;;;;;;19.02;5.72;;;;;;;;;;4985523;28;20065;-87
2022/11/11 00:53:59;;;;;;;7.70;5.18;;;;;;;;;;4987116;28;20050;-88
2022/11/11 00:56:25;;;;;;;13.88;5.30;;;;;;;;;;4984634;28;20035;-87
2022/11/11 00:58:51;;;;;;;6.00;4.22;;;;;;;;;;4984947;28;20022;-87
2022/11/11 01:01:17;;;;;;;9.38;5.22;;;;;;;;;;4986088;28;20038;-87
2022/11/11 01:03:43;;;;;;;7.85;5.00;;;;;;;;;;4983142;28;20041;-88
2022/11/11 01:06:10;;;;;;;6.78;3.88;;;;;;;;;;4985133;28;20117;-87
2022/11/11 01:08:35;;;;;;;7.25;4.13;;;;;;;;;;4996322;28;20026;-88
2022/11/11 01:11:01;;;;;;;11.40;4.53;;;;;;;;;;5000466;28;20019;-88
2022/11/11 01:13:29;;;;;;;7.30;4.03;;;;;;;;;;4984839;28;20042;-87
2022/11/11 01:16:01;;;;;;;10.65;4.70;;;;;;;;;;4982883;28;20030;-87
2022/11/11 01:18:27;;;;;;;9.50;4.32;;;;;;;;;;4977310;28;20070;-88
2022/11/11 01:21:17;;;;;;;8.20;4.18;;;;;;;;;;4985304;28;20397;-87
2022/11/11 01:23:44;;;;;;;9.90;4.57;;;;;;;;;;5007323;28;20093;-87
2022/11/11 01:26:24;;;;;;;17.67;5.15;;;;;;;;;;4978435;28;20023;-85
2022/11/11 01:28:54;;;;;;;10.35;4.60;;;;;;;;;;4982976;28;20027;-87
2022/11/11 01:31:22;;;;;;;7.15;3.88;;;;;;;;;;4981280;28;20114;-86
2022/11/11 01:33:48;;;;;;;5.78;3.65;;;;;;;;;;5006571;28;20026;-88
2022/11/11 01:36:19;;;;;;;5.72;4.25;;;;;;;;;;5005868;28;20103;-88
2022/11/11 01:38:48;;;;;;;10.73;3.95;;;;;;;;;;4985352;28;20039;-88
2022/11/11 01:41:32;;;;;;;5.82;3.90;;;;;;;;;;4979872;28;20015;-87
2022/11/11 01:44:09;;;;;;;7.38;3.75;;;;;;;;;;5007723;28;20038;-88
2022/11/11 01:47:00;;;;;;;18.92;4.15;;;;;;;;;;5006743;28;20129;-87
2022/11/11 01:49:52;;;;;;;8.07;4.00;;;;;;;;;;4980783;28;20046;-88
2022/11/11 01:52:26;;;;;;;6.93;4.40;;;;;;;;;;4982742;28;20129;-88
2022/11/11 01:55:07;;;;;;;6.68;3.97;;;;;;;;;;4986821;28;20049;-89
2022/11/11 01:57:38;;;;;;;6.53;4.63;;;;;;;;;;4997783;28;20041;-89
2022/11/11 02:00:11;;;;;;;9.48;4.07;;;;;;;;;;5002099;28;20023;-86
2022/11/11 02:02:52;;;;;;;5.18;3.45;;;;;;;;;;4991335;28;20030;-89
2022/11/11 02:08:08;;;;;;;7.22;3.50;;;;;;;;;;4985761;28;20135;-87
2022/11/11 02:10:34;;;;;;;6.32;3.90;;;;;;;;;;4983348;28;20618;-88
2022/11/11 02:15:44;;;;;;;7.38;4.05;;;;;;;;;;4981600;28;20057;-89
2022/11/11 02:18:10;;;;;;;6.10;3.60;;;;;;;;;;4980723;28;20061;-88
2022/11/11 02:20:38;;;;;;;8.30;3.83;;;;;;;;;;4986793;28;20468;-87
2022/11/11 02:23:18;;;;;;;11.13;4.50;;;;;;;;;;4979371;28;20026;-87
2022/11/11 02:25:46;;;;;;;5.30;3.58;;;;;;;;;;4982221;28;20109;-88
2022/11/11 02:28:13;;;;;;;5.32;3.67;;;;;;;;;;4983992;28;20018;-87
2022/11/11 02:30:39;;;;;;;6.72;3.78;;;;;;;;;;4982341;28;20054;-86
2022/11/11 02:33:04;;;;;;;10.38;4.05;;;;;;;;;;4983328;28;20096;-87
2022/11/11 02:35:35;;;;;;;7.03;3.45;;;;;;;;;;4982886;28;20034;-86
2022/11/11 02:38:07;;;;;;;6.32;4.07;;;;;;;;;;4985015;28;20041;-87
2022/11/11 02:41:55;;;;;;;7.18;4.38;;;;;;;;;;4988447;28;20157;-87
2022/11/11 02:43:29;;;;;;;13.93;4.53;;;;;;;;;;4991313;28;20524;-86
2022/11/11 02:45:54;;;;;;;4.45;3.78;;;;;;;;;;4984515;28;20045;-86
2022/11/11 02:48:19;;;;;;;8.75;3.72;;;;;;;;;;4988125;28;20064;-87
2022/11/11 02:50:45;;;;;;;5.15;3.40;;;;;;;;;;4990579;28;20037;-86
2022/11/11 02:53:10;;;;;;;14.20;4.57;;;;;;;;;;4993056;28;20030;-86
2022/11/11 02:55:36;;;;;;;5.95;3.92;;;;;;;;;;4992924;28;20033;-88
2022/11/11 02:58:01;;;;;;;8.57;3.80;;;;;;;;;;4994063;28;20487;-88
2022/11/11 03:00:27;;;;;;;10.40;4.05;;;;;;;;;;4992460;28;20484;-86
2022/11/11 03:02:53;;;;;;;5.90;4.03;;;;;;;;;;4994151;28;20054;-88
2022/11/11 03:05:19;;;;;;;6.97;3.80;;;;;;;;;;5010387;28;20026;-87
2022/11/11 03:07:44;;;;;;;6.70;4.00;;;;;;;;;;4983135;28;20116;-87
2022/11/11 03:10:10;;;;;;;7.10;3.95;;;;;;;;;;4976583;28;20505;-87
2022/11/11 03:12:36;;;;;;;12.27;4.10;;;;;;;;;;4978532;28;20046;-87
2022/11/11 03:15:03;;;;;;;5.15;3.25;;;;;;;;;;4980822;28;20477;-87
2022/11/11 03:17:40;;;;;;;10.70;4.13;;;;;;;;;;4988135;28;20399;-87
2022/11/11 03:23:03;;;;;;;6.32;4.28;;;;;;;;;;4998273;28;20384;-86
2022/11/11 03:25:38;;;;;;;6.88;4.00;;;;;;;;;;4998417;28;20053;-86
2022/11/11 03:28:07;;;;;;;7.75;4.35;;;;;;;;;;4998610;28;20036;-88
2022/11/11 03:30:32;;;;;;;7.00;4.28;;;;;;;;;;4998465;28;20042;-87
2022/11/11 03:33:01;;;;;;;6.70;4.30;;;;;;;;;;4998196;28;20150;-87
2022/11/11 03:35:27;;;;;;;8.90;4.85;;;;;;;;;;4986802;28;20138;-87
2022/11/11 03:40:37;;;;;;;8.00;5.05;;;;;;;;;;4997082;28;20053;-86
2022/11/11 03:43:03;;;;;;;6.13;4.30;;;;;;;;;;4988183;28;20054;-86
2022/11/11 03:45:28;;;;;;;7.50;4.43;;;;;;;;;;4996948;28;20042;-86
2022/11/11 03:47:54;;;;;;;12.40;4.93;;;;;;;;;;5002940;28;20030;-88
2022/11/11 03:50:21;;;;;;;8.35;5.05;;;;;;;;;;5001910;28;20097;-86
2022/11/11 03:52:46;;;;;;;9.18;5.30;;;;;;;;;;4989268;28;20044;-86
2022/11/11 03:55:12;;;;;;;7.78;4.38;;;;;;;;;;4997197;28;20469;-86
2022/11/11 03:57:41;;;;;;;8.85;4.60;;;;;;;;;;4983593;28;20441;-86
2022/11/11 04:00:09;;;;;;;8.82;4.93;;;;;;;;;;4977924;28;20042;-86
2022/11/11 04:10:46;;;;;;;7.20;4.13;;;;;;;;;;4995425;28;20576;-86
2022/11/11 04:16:04;;;;;;;6.47;4.32;;;;;;;;;;4985374;28;20030;-86
2022/11/11 04:23:59;;;;;;;9.30;4.47;;;;;;;;;;4989400;28;20033;-87
2022/11/11 04:26:24;;;;;;;10.73;4.95;;;;;;;;;;4997202;28;20022;-86
2022/11/11 04:31:34;;;;;;;9.07;4.78;;;;;;;;;;4982200;28;20065;-87
2022/11/11 04:33:59;;;;;;;10.85;4.78;;;;;;;;;;5001198;28;20027;-88
2022/11/11 04:36:24;;;;;;;7.15;4.47;;;;;;;;;;4989757;28;20049;-88
2022/11/11 04:41:34;;;;;;;9.15;4.43;;;;;;;;;;4999850;28;20038;-88
2022/11/11 04:46:43;;;;;;;10.48;4.35;;;;;;;;;;4997318;28;20045;-88
2022/11/11 04:49:08;;;;;;;6.97;3.85;;;;;;;;;;4996108;28;20018;-87
2022/11/11 04:54:18;;;;;;;10.00;5.30;;;;;;;;;;4997955;28;20494;-88
2022/11/11 04:56:49;;;;;;;6.03;4.72;;;;;;;;;;4989372;28;20109;-90
2022/11/11 04:59:15;;;;;;;7.20;4.28;;;;;;;;;;4994369;28;20023;-89
2022/11/11 05:04:25;;;;;;;7.03;3.78;;;;;;;;;;4989924;28;20118;-89
2022/11/11 05:09:34;;;;;;;10.60;4.65;;;;;;;;;;4982619;28;20051;-89
2022/11/11 05:12:00;;;;;;;6.65;4.03;;;;;;;;;;5002225;28;20026;-89
2022/11/11 05:22:42;;;;;;;9.85;4.10;;;;;;;;;;5016527;28;20041;-87
2022/11/11 05:25:28;;;;;;;7.70;3.85;;;;;;;;;;5010122;28;20125;-88
2022/11/11 05:27:57;;;;;;;7.88;4.28;;;;;;;;;;4993730;28;20030;-88
2022/11/11 05:30:24;;;;;;;8.27;4.40;;;;;;;;;;4993711;28;20660;-86
2022/11/11 05:32:49;;;;;;;5.07;3.88;;;;;;;;;;4990426;28;20037;-87
2022/11/11 05:35:16;;;;;;;11.18;4.20;;;;;;;;;;4987048;28;20030;-86
2022/11/11 05:37:42;;;;;;;6.30;3.55;;;;;;;;;;4990601;28;20054;-88
2022/11/11 05:40:08;;;;;;;10.45;4.30;;;;;;;;;;4985181;28;20056;-86
2022/11/11 05:42:34;;;;;;;14.32;4.32;;;;;;;;;;5010671;28;20057;-86
2022/11/11 05:44:59;;;;;;;9.23;4.68;;;;;;;;;;4994335;28;20057;-87
2022/11/11 05:47:25;;;;;;;8.93;4.70;;;;;;;;;;4991119;28;20088;-86
2022/11/11 05:49:51;;;;;;;7.25;4.15;;;;;;;;;;4978698;28;20023;-85
2022/11/11 05:52:16;;;;;;;7.25;4.15;;;;;;;;;;4974819;28;20237;-85
2022/11/11 05:54:42;;;;;;;8.07;4.30;;;;;;;;;;4980624;28;20030;-89
2022/11/11 05:57:08;;;;;;;6.68;4.35;;;;;;;;;;4994293;28;20034;-85
2022/11/11 05:59:33;;;;;;;11.20;4.65;;;;;;;;;;4996182;28;20041;-87
2022/11/11 06:01:59;;;;;;;7.10;4.53;;;;;;;;;;4996634;28;20503;-86
2022/11/11 06:04:24;;;;;;;7.95;4.43;;;;;;;;;;4997033;28;20033;-88
2022/11/11 06:06:50;;;;;;;12.45;4.50;;;;;;;;;;4994762;28;20639;-89
2022/11/11 06:09:16;;;;;;;4.45;3.65;;;;;;;;;;4983463;28;20066;-88
2022/11/11 06:11:42;;;;;;;8.15;4.57;;;;;;;;;;5009258;28;20042;-88
2022/11/11 06:14:07;;;;;;;7.00;4.00;;;;;;;;;;4986110;28;20062;-86
2022/11/11 06:16:33;;;;;;;8.55;4.40;;;;;;;;;;4995624;28;20034;-85
2022/11/11 06:18:59;;;;;;;7.35;4.15;;;;;;;;;;4986268;28;20023;-85
2022/11/11 06:21:24;;;;;;;6.97;3.72;;;;;;;;;;4982009;28;20081;-87
2022/11/11 06:23:50;;;;;;;8.02;4.50;;;;;;;;;;4977802;28;20389;-87
2022/11/11 06:26:15;;;;;;;6.63;3.50;;;;;;;;;;4987512;28;20027;-87
2022/11/11 06:28:52;;;;;;;4.38;3.85;;;;;;;;;;4995759;28;20078;-87
2022/11/11 06:31:20;;;;;;;7.10;4.15;;;;;;;;;;4984690;28;20057;-89
2022/11/11 06:33:46;;;;;;;7.57;3.70;;;;;;;;;;4994201;28;20030;-88
2022/11/11 06:36:14;;;;;;;8.30;3.33;;;;;;;;;;4995621;28;20033;-87
2022/11/11 06:38:41;;;;;;;6.57;3.95;;;;;;;;;;4994460;28;20030;-87
2022/11/11 06:41:07;;;;;;;10.23;4.05;;;;;;;;;;4993528;28;20113;-90
2022/11/11 06:43:33;;;;;;;7.00;4.25;;;;;;;;;;4994544;28;20093;-89
2022/11/11 06:45:58;;;;;;;5.80;3.95;;;;;;;;;;4995031;28;20046;-86
2022/11/11 06:48:25;;;;;;;8.80;3.80;;;;;;;;;;4994396;28;20062;-88
2022/11/11 06:50:51;;;;;;;8.57;4.32;;;;;;;;;;4995036;28;20036;-89
2022/11/11 06:53:18;;;;;;;5.55;3.97;;;;;;;;;;4995528;28;20113;-87
2022/11/11 06:55:44;;;;;;;6.43;3.90;;;;;;;;;;4984625;28;20081;-87
2022/11/11 06:58:15;;;;;;;6.50;4.07;;;;;;;;;;4994901;28;20030;-89
2022/11/11 07:00:41;;;;;;;7.65;3.72;;;;;;;;;;4994399;28;20125;-87
2022/11/11 07:03:08;;;;;;;6.07;4.20;;;;;;;;;;4994782;28;20073;-86
2022/11/11 07:05:34;;;;;;;12.60;3.80;;;;;;;;;;4978698;28;20037;-88
2022/11/11 07:08:04;;;;;;;8.13;4.03;;;;;;;;;;4991808;28;20027;-87
2022/11/11 07:10:30;;;;;;;4.93;3.00;;;;;;;;;;4975109;28;20617;-87
2022/11/11 07:12:56;;;;;;;7.22;4.07;;;;;;;;;;5015080;28;20026;-89
2022/11/11 07:15:21;;;;;;;5.10;3.30;;;;;;;;;;4997269;28;20088;-87
2022/11/11 07:17:47;;;;;;;7.82;3.45;;;;;;;;;;4992542;28;20083;-86
2022/11/11 07:20:12;;;;;;;4.32;3.22;;;;;;;;;;4993054;28;20415;-87
2022/11/11 07:22:38;;;;;;;6.03;3.70;;;;;;;;;;4991629;28;20053;-86
2022/11/11 07:25:04;;;;;;;5.28;3.47;;;;;;;;;;4993493;28;20026;-86
2022/11/11 07:27:29;;;;;;;5.88;3.33;;;;;;;;;;4992246;28;20030;-86
2022/11/11 07:29:55;;;;;;;6.80;3.63;;;;;;;;;;4991777;28;20037;-88
2022/11/11 07:32:20;;;;;;;7.20;3.88;;;;;;;;;;4991901;28;20048;-86
2022/11/11 07:34:45;;;;;;;11.25;4.13;;;;;;;;;;4973726;28;20132;-86
2022/11/11 07:37:11;;;;;;;6.43;3.90;;;;;;;;;;4989979;28;20019;-87
2022/11/11 07:39:36;;;;;;;8.52;3.95;;;;;;;;;;4976138;28;20011;-87
2022/11/11 07:42:01;;;;;;;6.07;3.78;;;;;;;;;;4989054;28;20127;-87
2022/11/11 07:44:27;;;;;;;6.90;4.60;;;;;;;;;;4989161;28;20042;-87
2022/11/11 07:46:52;;;;;;;8.43;4.43;;;;;;;;;;4982168;28;20050;-87
2022/11/11 07:49:18;;;;;;;8.45;5.03;;;;;;;;;;4992695;28;20030;-88
2022/11/11 07:51:43;;;;;;;5.25;3.70;;;;;;;;;;4992704;28;20187;-87
2022/11/11 07:54:08;;;;;;;6.90;4.35;;;;;;;;;;4995060;28;20118;-89
2022/11/11 07:56:34;;;;;;;6.30;4.18;;;;;;;;;;4994385;28;20073;-88
2022/11/11 07:59:00;;;;;;;6.95;4.25;;;;;;;;;;4994949;28;20022;-87
2022/11/11 08:01:25;;;;;;;6.00;3.85;;;;;;;;;;4995339;28;20037;-87
2022/11/11 08:03:50;;;;;;;11.82;4.15;;;;;;;;;;4998790;28;20034;-89
2022/11/11 08:06:17;;;;;;;5.30;3.90;;;;;;;;;;4993782;28;20033;-85
2022/11/11 08:08:43;;;;;;;8.50;4.00;;;;;;;;;;4986818;28;20029;-87
2022/11/11 08:11:08;;;;;;;8.45;4.45;;;;;;;;;;4986789;28;20030;-86
2022/11/11 08:13:39;;;;;;;8.43;4.10;;;;;;;;;;4984746;28;20118;-86
2022/11/11 08:16:09;;;;;;;7.97;3.97;;;;;;;;;;4986997;28;20029;-87
2022/11/11 08:18:35;;;;;;;6.00;4.18;;;;;;;;;;4992816;28;20030;-83
2022/11/11 08:21:02;;;;;;;5.50;3.28;;;;;;;;;;5005490;28;20089;-84
2022/11/11 08:23:31;;;;;;;6.88;4.20;;;;;;;;;;4996740;28;20038;-86
2022/11/11 08:26:05;;;;;;;6.63;4.07;;;;;;;;;;4996597;28;20455;-84
2022/11/11 08:28:33;;;;;;;6.20;4.05;;;;;;;;;;4985487;28;20038;-86
2022/11/11 08:31:00;;;;;;;10.27;4.63;;;;;;;;;;4990246;28;20034;-86
2022/11/11 08:33:26;;;;;;;5.80;4.43;;;;;;;;;;4982027;28;20436;-86
2022/11/11 08:35:53;;;;;;;10.20;5.13;;;;;;;;;;4990848;28;20042;-86
2022/11/11 08:38:19;;;;;;;9.63;3.90;;;;;;;;;;4989165;28;20506;-85
2022/11/11 08:40:45;;;;;;;8.90;4.65;;;;;;;;;;4994503;28;20037;-85
2022/11/11 08:43:11;;;;;;;11.50;3.88;;;;;;;;;;4983366;28;20027;-86
2022/11/11 08:45:37;;;;;;;8.52;3.67;;;;;;;;;;4977249;28;20027;-85
2022/11/11 08:48:02;;;;;;;7.63;4.07;;;;;;;;;;4977146;28;20030;-85
2022/11/11 08:50:28;;;;;;;4.65;3.53;;;;;;;;;;4980835;28;20034;-85
2022/11/11 08:52:53;;;;;;;5.45;3.50;;;;;;;;;;4995105;28;20050;-86
2022/11/11 08:55:18;;;;;;;8.90;3.15;;;;;;;;;;4996157;28;20018;-85
2022/11/11 08:57:44;;;;;;;8.90;3.53;;;;;;;;;;4992410;28;20023;-86
2022/11/11 09:00:11;;;;;;;4.97;3.30;;;;;;;;;;4999528;28;20054;-86
2022/11/11 09:02:36;;;;;;;15.13;4.28;;;;;;;;;;4977387;28;20038;-84
2022/11/11 09:05:02;;;;;;;6.75;3.67;;;;;;;;;;4984761;28;20078;-86
2022/11/11 09:07:28;;;;;;;5.13;4.07;;;;;;;;;;4977923;28;20511;-86
2022/11/11 09:09:53;;;;;;;5.57;3.40;;;;;;;;;;4976026;28;20035;-85
2022/11/11 09:12:19;;;;;;;7.88;3.80;;;;;;;;;;4975882;28;20117;-85
2022/11/11 09:14:44;;;;;;;5.82;3.75;;;;;;;;;;4991012;28;20057;-87
2022/11/11 09:17:10;;;;;;;8.32;3.90;;;;;;;;;;4977236;28;20031;-85
2022/11/11 09:19:35;;;;;;;8.20;3.88;;;;;;;;;;4976661;28;20022;-85
2022/11/11 09:22:01;;;;;;;7.07;4.70;;;;;;;;;;4975807;28;20042;-84
2022/11/11 09:24:26;;;;;;;11.55;4.03;;;;;;;;;;4976294;28;20031;-85
2022/11/11 09:26:52;;;;;;;6.97;4.57;;;;;;;;;;4976145;28;20027;-84
2022/11/11 09:29:18;;;;;;;7.18;4.45;;;;;;;;;;4976954;28;20167;-85
2022/11/11 09:31:44;;;;;;;6.10;4.22;;;;;;;;;;4976507;28;20030;-85
2022/11/11 09:34:10;;;;;;;6.80;4.22;;;;;;;;;;4976897;28;20038;-85
2022/11/11 09:36:35;;;;;;;8.10;3.88;;;;;;;;;;4976523;28;20104;-86
2022/11/11 09:39:00;;;;;;;6.38;3.90;;;;;;;;;;4976379;28;20384;-85
2022/11/11 09:42:03;;;;;;;6.05;4.28;;;;;;;;;;5008683;28;20057;-86
2022/11/11 09:44:31;;;;;;;6.90;4.05;;;;;;;;;;4976166;28;20081;-84
2022/11/11 09:47:22;;;;;;;15.50;4.15;;;;;;;;;;4976735;28;20054;-86
2022/11/11 09:50:05;;;;;;;6.28;4.20;;;;;;;;;;4976323;28;20070;-85
2022/11/11 09:52:40;;;;;;;7.25;4.00;;;;;;;;;;4976794;28;20033;-85
2022/11/11 09:55:20;;;;;;;8.13;4.50;;;;;;;;;;4976012;28;20031;-85
2022/11/11 09:58:14;;;;;;;8.25;4.93;;;;;;;;;;4976274;28;20033;-85
2022/11/11 10:00:42;;;;;;;13.20;3.85;;;;;;;;;;4957187;28;20073;-85
2022/11/11 10:03:16;;;;;;;6.47;3.78;;;;;;;;;;4975632;28;20452;-85
2022/11/11 10:06:02;;;;;;;5.65;3.70;;;;;;;;;;4974354;28;20037;-84
2022/11/11 10:09:01;;;;;;;10.38;4.47;;;;;;;;;;4974332;28;20053;-86
2022/11/11 10:12:04;;;;;;;10.10;3.63;;;;;;;;;;4966147;28;20034;-87
2022/11/11 10:14:38;;;;;;;6.78;3.63;;;;;;;;;;4995529;28;20034;-86
2022/11/11 10:17:27;;;;;;;8.93;4.05;;;;;;;;;;4995056;28;20033;-86
2022/11/11 10:20:12;;;;;;;10.45;4.25;;;;;;;;;;4995877;28;20133;-86
2022/11/11 10:22:41;;;;;;;5.88;3.55;;;;;;;;;;5009797;28;20108;-85
2022/11/11 10:25:12;;;;;;;6.57;3.65;;;;;;;;;;4992263;28;20018;-87
2022/11/11 10:27:43;;;;;;;9.65;4.18;;;;;;;;;;5001164;28;20022;-85
2022/11/11 10:30:29;;;;;;;5.75;3.50;;;;;;;;;;4986491;28;20080;-89
2022/11/11 10:33:12;;;;;;;7.97;3.58;;;;;;;;;;4987294;28;20026;-88
2022/11/11 10:35:39;;;;;;;10.05;3.83;;;;;;;;;;4986188;28;20117;-85
2022/11/11 10:38:24;;;;;;;8.25;4.32;;;;;;;;;;5001908;28;20030;-87
2022/11/11 10:40:55;;;;;;;9.52;3.70;;;;;;;;;;4989155;28;20523;-87
2022/11/11 10:43:26;;;;;;;6.65;3.83;;;;;;;;;;5006127;28;20468;-86
2022/11/11 10:46:10;;;;;;;8.52;3.50;;;;;;;;;;4995997;28;20488;-88
2022/11/11 10:48:35;;;;;;;10.05;4.05;;;;;;;;;;4996780;28;20069;-87
2022/11/11 10:51:02;;;;;;;9.68;3.92;;;;;;;;;;4994077;28;20080;-86
2022/11/11 10:53:50;;;;;;;5.60;3.63;;;;;;;;;;4989417;28;20062;-87
2022/11/11 10:56:28;;;;;;;6.13;4.05;;;;;;;;;;4988771;28;20030;-86
2022/11/11 10:59:06;;;;;;;10.13;3.90;;;;;;;;;;4985983;28;20050;-86
2022/11/11 11:01:44;;;;;;;5.40;3.22;;;;;;;;;;4992273;28;20098;-85
2022/11/11 11:04:21;;;;;;;12.07;3.75;;;;;;;;;;4991509;28;20065;-85
2022/11/11 11:06:48;;;;;;;7.20;3.88;;;;;;;;;;4977525;28;20033;-86
2022/11/11 11:09:17;;;;;;;10.90;3.85;;;;;;;;;;4983170;28;20065;-87
2022/11/11 11:11:51;;;;;;;9.20;3.60;;;;;;;;;;5003510;28;20417;-87
2022/11/11 11:14:27;;;;;;;9.40;3.92;;;;;;;;;;4983581;28;20030;-87
2022/11/11 11:16:56;;;;;;;6.88;3.53;;;;;;;;;;4990164;28;20084;-86
2022/11/11 11:19:26;;;;;;;6.20;3.80;;;;;;;;;;4988131;28;20061;-86
2022/11/11 11:21:57;;;;;;;9.88;3.20;;;;;;;;;;4995908;28;20524;-87
2022/11/11 11:24:34;;;;;;;6.47;3.80;;;;;;;;;;4995650;28;20026;-87
2022/11/11 11:27:03;;;;;;;5.15;3.78;;;;;;;;;;4994602;28;20054;-88
2022/11/11 11:29:38;;;;;;;8.30;4.35;;;;;;;;;;4995305;28;20128;-88
2022/11/11 11:32:12;;;;;;;8.43;3.78;;;;;;;;;;4995137;28;20488;-88
2022/11/11 11:34:50;;;;;;;12.00;3.83;;;;;;;;;;4994613;28;20049;-88
2022/11/11 11:37:17;;;;;;;7.10;3.83;;;;;;;;;;5006093;28;20393;-87
2022/11/11 11:39:43;;;;;;;7.03;4.10;;;;;;;;;;4995876;28;20054;-87
2022/11/11 11:42:28;;;;;;;9.13;4.53;;;;;;;;;;4999841;28;20030;-87
2022/11/11 11:44:53;;;;;;;5.95;4.00;;;;;;;;;;5008018;28;20026;-87
2022/11/11 11:47:35;;;;;;;14.45;3.63;;;;;;;;;;4990739;28;20029;-87
2022/11/11 11:50:22;;;;;;;7.15;3.85;;;;;;;;;;4987348;28;20133;-88
2022/11/11 11:53:04;;;;;;;9.82;3.88;;;;;;;;;;4992215;28;20026;-85
2022/11/11 11:55:45;;;;;;;6.35;3.50;;;;;;;;;;4992294;28;20026;-85
2022/11/11 11:58:34;;;;;;;6.40;3.50;;;;;;;;;;4994739;28;20125;-87
2022/11/11 12:01:18;;;;;;;7.78;3.78;;;;;;;;;;4993935;28;20027;-86
2022/11/11 12:04:20;;;;;;;8.05;3.28;;;;;;;;;;4988221;28;20033;-87
2022/11/11 12:07:01;;;;;;;5.15;3.10;;;;;;;;;;4988364;28;20033;-87
2022/11/11 12:09:59;;;;;;;6.03;3.33;;;;;;;;;;4991572;28;20168;-86
2022/11/11 12:12:47;;;;;;;5.03;2.97;;;;;;;;;;5004994;28;20064;-86
2022/11/11 12:15:57;;;;;;;4.75;2.72;;;;;;;;;;4997493;28;20094;-88
2022/11/11 12:18:25;;;;;;;6.53;2.85;;;;;;;;;;4993648;28;20026;-86
2022/11/11 12:21:01;;;;;;;7.85;3.17;;;;;;;;;;4994095;28;20025;-87
2022/11/11 12:23:45;;;;;;;9.98;2.97;;;;;;;;;;4995568;28;20037;-86
2022/11/11 12:26:45;;;;;;;6.65;2.80;;;;;;;;;;4995230;28;20396;-86
2022/11/11 12:29:21;;;;;;;3.25;2.20;;;;;;;;;;4989094;28;20388;-87
2022/11/11 12:32:35;;;;;;;4.20;2.60;;;;;;;;;;4995713;28;20065;-87
2022/11/11 12:35:19;;;;;;;4.95;2.63;;;;;;;;;;4989757;28;20026;-87
2022/11/11 12:38:03;;;;;;;3.67;2.50;;;;;;;;;;4993011;28;20962;-86
2022/11/11 12:40:40;;;;;;;7.78;2.90;;;;;;;;;;4987463;28;20343;-86
2022/11/11 12:43:28;;;;;;;5.95;2.38;;;;;;;;;;4980929;28;20045;-86
2022/11/11 12:46:27;;;;;;;9.55;2.72;;;;;;;;;;4984916;28;20022;-88
2022/11/11 12:49:20;;;;;;;5.40;2.95;;;;;;;;;;4989509;28;20118;-87
2022/11/11 12:51:48;;;;;;;6.03;2.90;;;;;;;;;;4987049;28;20038;-88
2022/11/11 12:55:08;;;;;;;3.40;2.50;;;;;;;;;;4988189;28;20109;-87
2022/11/11 12:58:06;;;;;;;5.43;2.60;;;;;;;;;;4998573;28;20047;-87
2022/11/11 13:00:38;;;;;;;3.55;2.40;;;;;;;;;;4983180;28;20070;-87
2022/11/11 13:03:14;;;;;;;7.97;2.85;;;;;;;;;;4988904;28;20038;-86
2022/11/11 13:05:39;;;;;;;7.00;2.90;;;;;;;;;;4987988;28;20083;-88
2022/11/11 13:08:19;;;;;;;4.35;2.60;;;;;;;;;;4981448;28;20035;-87
2022/11/11 13:11:19;;;;;;;5.22;3.03;;;;;;;;;;4980014;28;20038;-87
2022/11/11 13:13:55;;;;;;;5.00;3.25;;;;;;;;;;4969481;28;21660;-87
2022/11/11 13:17:03;;;;;;;3.25;2.65;;;;;;;;;;4984125;28;20149;-87
2022/11/11 13:20:02;;;;;;;4.10;2.72;;;;;;;;;;4984203;28;20062;-88
2022/11/11 13:22:58;;;;;;;5.93;2.45;;;;;;;;;;4997977;28;20030;-86
2022/11/11 13:25:47;;;;;;;3.83;2.30;;;;;;;;;;4994235;28;20400;-87
2022/11/11 13:28:31;;;;;;;4.88;2.55;;;;;;;;;;4995322;28;20113;-88
2022/11/11 13:31:14;;;;;;;6.80;2.45;;;;;;;;;;5004650;28;20030;-86
2022/11/11 13:33:44;;;;;;;6.00;2.65;;;;;;;;;;4999064;28;20481;-87
2022/11/11 13:36:14;;;;;;;4.22;2.40;;;;;;;;;;4988458;28;20505;-87
2022/11/11 13:39:24;;;;;;;4.07;2.63;;;;;;;;;;4996812;28;20526;-86
2022/11/11 13:41:53;;;;;;;3.17;2.38;;;;;;;;;;4968694;28;20157;-87
2022/11/11 13:44:26;;;;;;;5.97;2.50;;;;;;;;;;4988132;28;20489;-86
2022/11/11 13:47:04;;;;;;;5.07;2.60;;;;;;;;;;4995566;28;20057;-87
2022/11/11 13:49:37;;;;;;;5.30;2.55;;;;;;;;;;4990704;28;20031;-86
2022/11/11 13:52:26;;;;;;;5.15;2.63;;;;;;;;;;4990522;28;20030;-88
2022/11/11 13:55:21;;;;;;;3.45;2.40;;;;;;;;;;5002151;28;20117;-87
2022/11/11 13:57:50;;;;;;;4.75;2.40;;;;;;;;;;4993121;28;20064;-87
2022/11/11 14:00:21;;;;;;;7.45;2.30;;;;;;;;;;4997940;28;20055;-87
2022/11/11 14:02:47;;;;;;;5.63;2.72;;;;;;;;;;4990767;28;20030;-87
2022/11/11 14:05:12;;;;;;;6.78;2.63;;;;;;;;;;4996633;28;20137;-87
2022/11/11 14:07:43;;;;;;;6.35;2.60;;;;;;;;;;4989379;28;20042;-87
2022/11/11 14:10:15;;;;;;;6.78;2.63;;;;;;;;;;5005248;28;20523;-86
2022/11/11 14:12:47;;;;;;;5.65;2.70;;;;;;;;;;4982692;28;20030;-86
2022/11/11 14:15:37;;;;;;;6.60;2.30;;;;;;;;;;4999200;28;20022;-88
2022/11/11 14:18:09;;;;;;;3.28;2.25;;;;;;;;;;5007493;28;20029;-89
2022/11/11 14:20:36;;;;;;;;;;;;;;;;;;4993811;28;20511;-85
2022/11/11 14:23:17;;;;;;;3.17;1.92;;;;;;;;;;4994471;28;19910;-87
2022/11/11 14:25:45;;;;;;;4.28;2.00;;;;;;;;;;4981476;28;20069;-88
2022/11/11 14:28:28;;;;;;;4.45;2.10;;;;;;;;;;4980019;28;20034;-88
2022/11/11 14:30:57;;;;;;;3.95;2.05;;;;;;;;;;4993866;28;20638;-88
2022/11/11 14:34:00;;;;;;;2.30;1.70;;;;;;;;;;4988698;28;20035;-87
2022/11/11 14:36:35;;;;;;;;;;;;;;;;;;4984603;28;20037;-87
2022/11/11 14:39:30;;;;;;;3.35;2.28;;;;;;;;;;4997578;28;19999;-88
2022/11/11 14:41:56;;;;;;;4.07;2.10;;;;;;;;;;4983086;28;20480;-87
2022/11/11 14:44:33;;;;;;;6.90;2.10;;;;;;;;;;4993719;28;20104;-87
2022/11/11 14:47:01;;;;;;;8.52;2.10;;;;;;;;;;4997558;28;20029;-88
2022/11/11 14:49:42;;;;;;;2.08;1.77;;;;;;;;;;4991389;28;20027;-87
2022/11/11 14:52:36;;;;;;;3.50;2.20;;;;;;;;;;4989790;28;20500;-86
2022/11/11 14:55:01;;;;;;;6.72;1.90;;;;;;;;;;5004890;28;20057;-87
2022/11/11 14:57:32;;;;;;;3.38;2.00;;;;;;;;;;4992510;28;20029;-87
2022/11/11 14:59:59;;;;;;;8.82;2.10;;;;;;;;;;4984314;28;20035;-86
2022/11/11 15:02:33;;;;;;;3.47;1.75;;;;;;;;;;4989683;28;20512;-87
2022/11/11 15:05:00;;;;;;;3.92;1.55;;;;;;;;;;4985755;28;20041;-86
2022/11/11 15:08:00;;;;;;;2.03;1.70;;;;;;;;;;4991485;28;20022;-87
2022/11/11 15:10:38;;;;;;;8.60;1.90;;;;;;;;;;4998259;28;20592;-87
2022/11/11 15:13:42;;;;;;;5.47;2.10;;;;;;;;;;4988909;28;20085;-87
2022/11/11 15:16:31;;;;;;;3.45;2.03;;;;;;;;;;4990625;28;20084;-87
2022/11/11 15:19:14;;;;;;;4.32;1.88;;;;;;;;;;4992016;28;20042;-87
2022/11/11 15:21:50;;;;;;;4.05;2.08;;;;;;;;;;4994708;28;20121;-87
2022/11/11 15:24:31;;;;;;;4.43;2.35;;;;;;;;;;4996259;28;20030;-87
2022/11/11 15:27:07;;;;;;;6.45;2.42;;;;;;;;;;4989055;28;20484;-87
2022/11/11 15:29:51;;;;;;;6.05;2.25;;;;;;;;;;4997251;28;20113;-88
2022/11/11 15:32:24;;;;;;;6.05;2.47;;;;;;;;;;4989073;28;20030;-87
2022/11/11 15:35:01;;;;;;;12.20;2.40;;;;;;;;;;4986385;28;20047;-87
2022/11/11 15:37:27;;;;;;;4.10;2.00;;;;;;;;;;4998732;28;20033;-87
2022/11/11 15:39:56;;;;;;;3.13;2.00;;;;;;;;;;4997726;28;20400;-90
2022/11/11 15:42:32;;;;;;;3.45;1.88;;;;;;;;;;4990861;28;20125;-87
2022/11/11 15:45:00;;;;;;;4.45;2.55;;;;;;;;;;4988495;28;20109;-87
2022/11/11 15:47:34;;;;;;;3.65;1.95;;;;;;;;;;5002840;28;20047;-88
2022/11/11 15:50:00;;;;;;;2.78;1.77;;;;;;;;;;5013933;28;20045;-89
2022/11/11 15:52:31;;;;;;;3.40;1.75;;;;;;;;;;5006457;28;20026;-88
2022/11/11 15:54:58;;;;;;;2.38;1.83;;;;;;;;;;5002224;28;20042;-87
2022/11/11 15:57:31;;;;;;;4.22;1.95;;;;;;;;;;5006685;28;20027;-88
2022/11/11 15:59:58;;;;;;;4.05;1.73;;;;;;;;;;5006545;28;20022;-86
2022/11/11 16:02:26;;;;;;;3.53;1.70;;;;;;;;;;4965901;28;1222942;-87
2022/11/11 16:04:56;;;;;;;4.18;2.22;;;;;;;;;;4994121;28;20038;-88
2022/11/11 16:07:33;;;;;;;4.22;2.40;;;;;;;;;;4995584;28;20061;-87
2022/11/11 16:10:06;;;;;;;7.30;2.20;;;;;;;;;;4986137;28;20464;-87
2022/11/11 16:12:47;;;;;;;7.97;2.17;;;;;;;;;;4997083;28;20030;-87
2022/11/11 16:15:22;;;;;;;3.22;2.13;;;;;;;;;;5000007;28;20050;-88
2022/11/11 16:17:48;;;;;;;3.20;2.20;;;;;;;;;;4992390;28;20046;-87